• Join FlightAware (Why Join?)
  • Login
  • US Flag 
11:08PM EDT


 

Airport Tracker/Info


-or-


 

Live Flight TrackerFlight Track Log ✈ N27XP ✈ 14-Oct-2013 ✈ KIPJ - KSOP

Flight Track Log - Related Links

Times and Time Zones

All times are in EDT time to prevent confusion due to time zone crossing. See the N27XP flight status page for this flight to view local times or setup timezone preferences in your user account.

Time Position Orientation Groundspeed Altitude Reporting Facility
EDT Latitude Longitude Course Direction KTS MPH feet Rate Location/Type
05:15PM 35.5150 -81.0561 79° East 264 304 2,500  Level Atlanta Center
05:15PM 35.5169 -81.0433 79° East 272 313 2,500 600 Level Atlanta Center
05:16PM 35.5294 -80.9586 80° East 257 296 3,200 1,200 Climbing Atlanta Center
05:17PM 35.5292 -80.8719 90° East 252 290 5,000 780 Climbing Atlanta Center
05:18PM 35.5083 -80.7858 107° East 269 310 4,900  Descending Atlanta Center
05:19PM 35.4892 -80.7000 105° East 271 312 5,000  Climbing Atlanta Center
05:20PM 35.4636 -80.6017 108° East 271 312 5,000 360 Level Atlanta Center
05:21PM 35.4422 -80.5133 107° East 270 311 5,800 840 Climbing Atlanta Center
05:22PM 35.4231 -80.4275 105° East 268 308 6,800 540 Climbing Atlanta Center
05:23PM 35.3975 -80.3342 109° East 275 316 7,000 180 Climbing Atlanta Center
05:25PM 35.3559 -80.2121 113° Southeast  Level FlightAware Approximate
05:32PM 35.2167 -79.6490 90° East  Level FlightAware Approximate
05:33PM 35.2051 -79.5782 39° Northeast  Level FlightAware Approximate
05:34PM 35.2167 -79.5016 90° East  Level FlightAware Approximate
05:35PM 35.2261 -79.4196 76° East  Level FlightAware Approximate
05:36PM 35.2333 -79.3833 76° East  Level FlightAware Approximate
05:37PM 35.2380 -79.3883 76° East  Level Estimated
05:38PM 35.2333 -79.3833 76° East  Level FlightAware Approximate
05:39PM 35.2380 -79.3883 76° East  Level Estimated
05:40PM 35.2333 -79.3833 76° East  Level FlightAware Approximate
05:41PM 35.2380 -79.3883 76° East  Level Estimated